Pagina principală
METAR-TAF:

METAR-TAF

Aeroporturi :

Emporia Municipal Airport

Emporia, Kansas, Statele Unite ale Americii

Latitudine: 38-19-44N, longitudine: 096-11-38W, elevație: 367 m

Observații meteo curente

Raportul a fost făcut în urmă cu 1 oră și 4 de minute, la 21:53 UTC
Vânt 15 kt de la Vest/Sud-vest cu rafale de până la 29 kt
Temperatură 36°C
Umiditate 45%
Presiune 1010 hPa
Vizibilitate: 16.1 km
Cer senin

METAR: KEMP 222153Z AUTO 24015G29KT 10SM CLR 36/22 A2983 RMK AO2 PK WND 24030/2141 SLP085 T03560217

Ora: 17:57 (22:57 UTC)


TAF: lipsă

Observații și prognoze meteo pentru peste 4.000 de aeroporturi (rapoarte METAR și TAF).

Stațiile disponibile sunt reprezentate pe hartă prin puncte galbene și roșii.

Țineți indicatorul mouse-ului pe punctul dorit pentru a vedea denumirea stației.

Apoi, faceți clic pentru a vedea observațiile și prognozele meteorologice.

Pentru a schimba harta: Pentru mărire, faceți clic pe butoanele verzi cu cruce neagră; pentru micșorare, pe butonul verde cu o liniuță; pentru hărți învecinate, pe săgețile verzi.


METAR-TAF: